Time;durP1;ratioP1;P1;durP2;ratioP2;P2;SDS_P1;SDS_P2;PMS_P1;PMS_P2;Temp;Humidity;BMP_temperature;BMP_pressure;BME280_temperature;BME280_humidity;BME280_pressure;Samples;Min_cycle;Max_cycle;Signal;HPM_P1;HPM_P2
2023/12/11 00:02:17;;;;;;;17.13;12.40;;;5.30;99.90;;;;;;5073209;28;20029;-63
2023/12/11 00:04:43;;;;;;;20.37;12.60;;;5.30;99.90;;;;;;5071985;28;20041;-64
2023/12/11 00:07:08;;;;;;;18.03;12.73;;;5.30;99.90;;;;;;5072833;28;20031;-65
2023/12/11 00:09:34;;;;;;;17.97;12.57;;;5.30;99.90;;;;;;5073100;28;20032;-72
2023/12/11 00:12:00;;;;;;;16.80;12.50;;;5.30;99.90;;;;;;5072752;28;20086;-71
2023/12/11 00:14:25;;;;;;;16.63;12.43;;;5.30;99.90;;;;;;5072841;28;20036;-72
2023/12/11 00:16:51;;;;;;;16.50;12.20;;;5.30;99.90;;;;;;5072785;28;20064;-71
2023/12/11 00:19:17;;;;;;;16.47;11.90;;;5.30;99.90;;;;;;5072618;28;20105;-71
2023/12/11 00:21:43;;;;;;;15.37;11.37;;;5.30;99.90;;;;;;5072770;28;20086;-69
2023/12/11 00:24:08;;;;;;;17.73;11.60;;;5.30;99.90;;;;;;5072691;28;20299;-71
2023/12/11 00:26:34;;;;;;;15.90;11.43;;;5.30;99.90;;;;;;5072878;28;20040;-70
2023/12/11 00:29:00;;;;;;;15.10;11.40;;;5.30;99.90;;;;;;5054845;28;20047;-71
2023/12/11 00:31:25;;;;;;;15.93;12.27;;;5.30;99.90;;;;;;5072767;28;20028;-71
2023/12/11 00:33:51;;;;;;;18.60;12.80;;;5.20;99.90;;;;;;5072178;28;20041;-72
2023/12/11 00:36:17;;;;;;;16.47;12.20;;;5.30;99.90;;;;;;5054269;28;20056;-71
2023/12/11 00:38:42;;;;;;;17.70;12.90;;;5.20;99.90;;;;;;5073030;28;20115;-71
2023/12/11 00:41:08;;;;;;;18.93;12.50;;;5.20;99.90;;;;;;5072630;28;20481;-71
2023/12/11 00:43:34;;;;;;;20.63;13.20;;;5.20;99.90;;;;;;5072810;28;20040;-72
2023/12/11 00:45:59;;;;;;;16.43;12.03;;;5.20;99.90;;;;;;5072525;28;20453;-71
2023/12/11 00:48:25;;;;;;;17.27;11.87;;;5.20;99.90;;;;;;5072661;28;20040;-71
2023/12/11 00:50:51;;;;;;;16.60;12.57;;;5.10;99.90;;;;;;5072544;28;20035;-71
2023/12/11 00:53:17;;;;;;;15.77;12.57;;;5.10;99.90;;;;;;5072593;28;20082;-72
2023/12/11 00:55:42;;;;;;;16.80;12.90;;;5.10;99.90;;;;;;5072501;28;20068;-72
2023/12/11 00:58:09;;;;;;;19.63;13.70;;;5.10;99.90;;;;;;5072244;28;20443;-72
2023/12/11 01:00:34;;;;;;;14.97;11.70;;;5.10;99.90;;;;;;5072115;28;20374;-71
2023/12/11 01:03:00;;;;;;;13.90;10.73;;;5.10;99.90;;;;;;5072110;28;20040;-71
2023/12/11 01:05:26;;;;;;;13.77;10.63;;;5.10;99.90;;;;;;5071927;28;20031;-71
2023/12/11 01:07:52;;;;;;;12.90;9.97;;;5.10;99.90;;;;;;5072504;28;20036;-69
2023/12/11 01:10:17;;;;;;;15.80;11.20;;;5.10;99.90;;;;;;5071974;28;20473;-71
2023/12/11 01:12:43;;;;;;;14.20;10.53;;;5.10;99.90;;;;;;5072585;28;20040;-71
2023/12/11 01:15:09;;;;;;;11.90;9.00;;;5.00;99.90;;;;;;5072438;28;20040;-71
2023/12/11 01:17:35;;;;;;;12.60;10.13;;;5.00;99.90;;;;;;5075259;28;20041;-72
2023/12/11 01:20:00;;;;;;;16.57;10.40;;;5.00;99.90;;;;;;5076278;28;20041;-72
2023/12/11 01:22:26;;;;;;;14.60;10.13;;;5.00;99.90;;;;;;5076159;28;20068;-71
2023/12/11 01:24:52;;;;;;;13.03;10.03;;;5.00;99.90;;;;;;5075957;28;20032;-71
2023/12/11 01:27:17;;;;;;;13.53;9.93;;;5.00;99.90;;;;;;5075907;28;20032;-71
2023/12/11 01:29:43;;;;;;;11.43;9.20;;;5.00;99.90;;;;;;5076175;28;20044;-71
2023/12/11 01:32:09;;;;;;;13.20;9.63;;;5.00;99.90;;;;;;5075913;28;20036;-70
2023/12/11 01:34:34;;;;;;;12.93;9.47;;;5.00;99.90;;;;;;5075839;28;20051;-69
2023/12/11 01:37:00;;;;;;;12.87;9.37;;;5.00;99.90;;;;;;5076053;28;20037;-71
2023/12/11 01:39:26;;;;;;;14.33;9.90;;;5.00;99.90;;;;;;5075726;28;20067;-71
2023/12/11 01:41:52;;;;;;;11.70;9.20;;;5.00;99.90;;;;;;5075611;28;20051;-71
2023/12/11 01:44:17;;;;;;;12.20;9.67;;;5.00;99.90;;;;;;5075783;28;20108;-71
2023/12/11 01:46:44;;;;;;;13.97;9.57;;;5.00;99.90;;;;;;5075794;28;20029;-71
2023/12/11 01:49:09;;;;;;;12.43;8.97;;;4.90;99.90;;;;;;5075696;28;20082;-72
2023/12/11 01:51:36;;;;;;;13.80;9.60;;;5.00;99.90;;;;;;5075588;28;20040;-71
2023/12/11 01:54:02;;;;;;;13.70;9.53;;;5.00;99.90;;;;;;5075411;28;20508;-71
2023/12/11 01:56:29;;;;;;;10.40;8.33;;;5.00;99.90;;;;;;5075197;28;20048;-71
2023/12/11 01:58:55;;;;;;;12.20;9.33;;;4.90;99.90;;;;;;5073149;28;20048;-71
2023/12/11 02:01:25;;;;;;;15.27;9.27;;;4.90;99.90;;;;;;5072554;28;20048;-71
2023/12/11 02:03:51;;;;;;;12.70;8.93;;;4.90;99.90;;;;;;5072988;28;20086;-71
2023/12/11 02:06:17;;;;;;;11.77;9.37;;;4.90;99.90;;;;;;5075164;28;20029;-71
2023/12/11 02:08:45;;;;;;;11.07;8.33;;;5.00;99.90;;;;;;5075022;28;20032;-69
2023/12/11 02:11:12;;;;;;;13.90;9.83;;;4.90;99.90;;;;;;5075166;28;20081;-63
2023/12/11 02:13:39;;;;;;;13.03;9.03;;;5.00;99.90;;;;;;5074739;28;20029;-63
2023/12/11 02:16:06;;;;;;;14.23;10.03;;;5.00;99.90;;;;;;5075001;28;20048;-63
2023/12/11 02:18:31;;;;;;;11.90;9.33;;;5.00;99.90;;;;;;5074967;28;20114;-64
2023/12/11 02:20:57;;;;;;;14.70;10.53;;;5.00;99.90;;;;;;5074761;28;20469;-63
2023/12/11 02:23:29;;;;;;;12.07;8.80;;;5.00;99.90;;;;;;5074967;28;20086;-63
2023/12/11 02:26:13;;;;;;;13.53;10.13;;;5.00;99.90;;;;;;5075009;28;20036;-63
2023/12/11 02:28:39;;;;;;;11.83;9.77;;;5.00;99.90;;;;;;5074057;28;20040;-63
2023/12/11 02:31:05;;;;;;;14.07;9.80;;;5.00;99.90;;;;;;5074811;28;20028;-63
2023/12/11 02:33:31;;;;;;;12.53;9.97;;;5.00;99.90;;;;;;5074455;28;20036;-65
2023/12/11 02:35:57;;;;;;;12.23;9.37;;;5.00;99.90;;;;;;5074242;28;20041;-63
2023/12/11 02:38:23;;;;;;;19.47;10.70;;;5.00;99.90;;;;;;5074011;28;20044;-63
2023/12/11 02:40:48;;;;;;;13.33;10.07;;;5.10;99.90;;;;;;5074064;28;20496;-72
2023/12/11 02:43:14;;;;;;;13.87;9.87;;;5.00;99.90;;;;;;5074180;28;20059;-71
2023/12/11 02:45:42;;;;;;;12.57;9.67;;;5.00;99.90;;;;;;5074556;28;20075;-71
2023/12/11 02:48:08;;;;;;;13.20;9.63;;;5.10;99.90;;;;;;5074619;28;20389;-72
2023/12/11 02:50:33;;;;;;;13.50;9.87;;;5.10;99.90;;;;;;5074548;28;20037;-72
2023/12/11 02:53:01;;;;;;;12.37;9.77;;;5.10;99.90;;;;;;5074489;28;20036;-62
2023/12/11 02:55:27;;;;;;;15.33;10.10;;;5.10;99.90;;;;;;5074195;28;20496;-64
2023/12/11 02:57:58;;;;;;;12.83;9.63;;;5.10;99.90;;;;;;5074541;28;20403;-63
2023/12/11 03:00:24;;;;;;;12.20;9.40;;;5.10;99.90;;;;;;5074324;28;20043;-63
2023/12/11 03:02:50;;;;;;;15.37;9.53;;;5.10;99.90;;;;;;5074253;28;20045;-62
2023/12/11 03:05:16;;;;;;;13.20;9.43;;;5.10;99.90;;;;;;5074095;28;20086;-63
2023/12/11 03:07:41;;;;;;;12.20;9.53;;;5.20;99.90;;;;;;5073973;28;20064;-63
2023/12/11 03:10:08;;;;;;;14.53;10.47;;;5.20;99.90;;;;;;5074045;28;20052;-63
2023/12/11 03:12:34;;;;;;;13.30;9.07;;;5.20;99.90;;;;;;5074032;28;20027;-63
2023/12/11 03:15:00;;;;;;;15.07;10.07;;;5.20;99.90;;;;;;5073820;28;20463;-64
2023/12/11 03:17:26;;;;;;;11.57;8.23;;;5.20;99.90;;;;;;5073955;28;20056;-63
2023/12/11 03:19:53;;;;;;;11.97;8.23;;;5.20;99.90;;;;;;5073996;28;20066;-63
2023/12/11 03:22:19;;;;;;;11.87;8.60;;;5.20;99.90;;;;;;5074072;28;20432;-63
2023/12/11 03:24:46;;;;;;;14.17;8.17;;;5.30;99.90;;;;;;5072364;28;20075;-63
2023/12/11 03:27:11;;;;;;;12.53;8.27;;;5.30;99.90;;;;;;5073560;28;20052;-63
2023/12/11 03:29:37;;;;;;;11.53;8.47;;;5.30;99.90;;;;;;5073728;28;20025;-63
2023/12/11 03:32:03;;;;;;;13.17;9.10;;;5.30;99.90;;;;;;5073327;28;20384;-63
2023/12/11 03:34:29;;;;;;;11.47;9.00;;;5.40;99.90;;;;;;5073486;28;20106;-63
2023/12/11 03:36:54;;;;;;;13.03;8.93;;;5.40;99.90;;;;;;5073482;28;20036;-63
2023/12/11 03:39:20;;;;;;;14.70;9.87;;;5.40;99.90;;;;;;5072746;28;20582;-64
2023/12/11 03:41:47;;;;;;;12.13;9.30;;;5.40;99.90;;;;;;5072770;28;20048;-63
2023/12/11 03:44:12;;;;;;;13.73;10.23;;;5.40;99.90;;;;;;5073388;28;20511;-63
2023/12/11 03:46:38;;;;;;;14.13;9.77;;;5.40;99.90;;;;;;5073584;28;20028;-63
2023/12/11 03:49:04;;;;;;;12.07;9.20;;;5.40;99.90;;;;;;5073422;28;20396;-62
2023/12/11 03:51:29;;;;;;;13.87;9.80;;;5.40;99.90;;;;;;5073311;28;20037;-63
2023/12/11 03:53:56;;;;;;;13.37;10.40;;;5.40;99.90;;;;;;5073182;28;20392;-63
2023/12/11 03:56:22;;;;;;;13.47;10.03;;;5.50;99.90;;;;;;5073322;28;20538;-63
2023/12/11 03:58:47;;;;;;;13.07;10.33;;;5.40;99.90;;;;;;5073114;28;20029;-63
2023/12/11 04:01:13;;;;;;;16.97;10.50;;;5.40;99.90;;;;;;5073094;28;20044;-63
2023/12/11 04:03:39;;;;;;;13.90;10.37;;;5.50;99.90;;;;;;5072960;28;20083;-64
2023/12/11 04:06:04;;;;;;;13.57;10.97;;;5.40;99.90;;;;;;5073220;28;20090;-64
2023/12/11 04:08:31;;;;;;;14.90;11.60;;;5.40;99.90;;;;;;5072947;28;20392;-63
2023/12/11 04:10:57;;;;;;;21.67;16.20;;;5.40;99.90;;;;;;5073380;28;20102;-63
2023/12/11 04:13:22;;;;;;;14.43;10.97;;;5.40;99.90;;;;;;5073111;28;20032;-63
2023/12/11 04:15:48;;;;;;;14.43;11.47;;;5.50;99.90;;;;;;5072619;28;20067;-63
2023/12/11 04:18:14;;;;;;;12.17;9.87;;;5.40;99.90;;;;;;5073088;28;20081;-63
2023/12/11 04:20:39;;;;;;;12.80;9.90;;;5.50;99.90;;;;;;5072773;28;20369;-63
2023/12/11 04:23:05;;;;;;;12.87;10.00;;;5.50;99.90;;;;;;5072745;28;20048;-63
2023/12/11 04:25:31;;;;;;;13.97;10.47;;;5.50;99.90;;;;;;5072583;28;20040;-63
2023/12/11 04:27:56;;;;;;;13.20;9.03;;;5.50;99.90;;;;;;5072603;28;20071;-63
2023/12/11 04:30:22;;;;;;;11.27;8.83;;;5.50;99.90;;;;;;5072749;28;20059;-63
2023/12/11 04:32:48;;;;;;;10.43;8.20;;;5.50;99.90;;;;;;5073019;28;20040;-63
2023/12/11 04:35:14;;;;;;;14.30;8.87;;;5.50;99.90;;;;;;5072463;28;20044;-63
2023/12/11 04:37:39;;;;;;;13.17;8.00;;;5.50;99.90;;;;;;5072240;28;20060;-63
2023/12/11 04:40:05;;;;;;;11.70;7.70;;;5.50;99.90;;;;;;5077949;23;20036;-70
2023/12/11 04:42:31;;;;;;;12.03;7.37;;;5.60;99.90;;;;;;5031832;28;20508;-71
2023/12/11 04:44:57;;;;;;;13.40;7.13;;;5.60;99.90;;;;;;5032036;28;20038;-71
2023/12/11 04:47:22;;;;;;;11.37;6.47;;;5.60;99.90;;;;;;5032121;28;20489;-71
2023/12/11 04:49:48;;;;;;;8.57;6.00;;;5.60;99.90;;;;;;5031996;28;20030;-71
2023/12/11 04:52:15;;;;;;;9.97;5.83;;;5.60;99.90;;;;;;5034746;28;20048;-71
2023/12/11 04:54:41;;;;;;;11.23;6.00;;;5.60;99.90;;;;;;5036571;28;20042;-71
2023/12/11 04:57:07;;;;;;;10.97;5.83;;;5.70;99.90;;;;;;5036337;28;20029;-71
2023/12/11 04:59:32;;;;;;;9.30;5.77;;;5.70;99.90;;;;;;5036810;28;20037;-72
2023/12/11 05:01:58;;;;;;;12.00;6.17;;;5.70;99.90;;;;;;5036534;28;20033;-71
2023/12/11 05:04:24;;;;;;;13.23;6.50;;;5.70;99.90;;;;;;5036318;28;20095;-71
2023/12/11 05:06:49;;;;;;;10.83;5.93;;;5.70;99.90;;;;;;5037124;28;20030;-71
2023/12/11 05:09:15;;;;;;;9.17;6.30;;;5.80;99.90;;;;;;5036476;28;20056;-70
2023/12/11 05:11:41;;;;;;;11.83;7.40;;;5.80;99.90;;;;;;5036577;28;20033;-70
2023/12/11 05:14:06;;;;;;;15.03;8.17;;;5.80;99.90;;;;;;5036264;28;20092;-71
2023/12/11 05:16:32;;;;;;;9.83;7.97;;;5.80;99.90;;;;;;5036958;28;20029;-69
2023/12/11 05:18:58;;;;;;;13.60;9.20;;;5.80;99.90;;;;;;5036250;28;20112;-71
2023/12/11 05:21:24;;;;;;;11.07;8.57;;;5.80;99.90;;;;;;5036481;28;20041;-71
2023/12/11 05:23:52;;;;;;;10.73;7.93;;;5.80;99.90;;;;;;5018850;28;20389;-72
2023/12/11 05:26:20;;;;;;;13.27;8.37;;;5.70;99.90;;;;;;5036216;28;20116;-70
2023/12/11 05:28:47;;;;;;;11.90;8.73;;;5.80;99.90;;;;;;5036081;28;20030;-71
2023/12/11 05:31:14;;;;;;;15.30;8.77;;;5.70;99.90;;;;;;5036053;28;20064;-70
2023/12/11 05:33:39;;;;;;;12.47;9.00;;;5.80;99.90;;;;;;5036060;28;20036;-69
2023/12/11 05:36:06;;;;;;;12.73;8.20;;;5.70;99.90;;;;;;5035877;28;20038;-70
2023/12/11 05:38:32;;;;;;;11.17;8.20;;;5.70;99.90;;;;;;5035847;28;20188;-71
2023/12/11 05:40:57;;;;;;;12.80;8.97;;;5.80;99.90;;;;;;5035598;28;20053;-71
2023/12/11 05:43:23;;;;;;;11.43;8.43;;;5.80;99.90;;;;;;5035563;28;20389;-71
2023/12/11 05:45:49;;;;;;;12.87;8.97;;;5.80;99.90;;;;;;5035912;28;20076;-71
2023/12/11 05:48:14;;;;;;;14.03;12.00;;;5.80;99.90;;;;;;5035823;28;20413;-71
2023/12/11 05:50:40;;;;;;;11.73;9.50;;;5.70;99.90;;;;;;5035569;28;20100;-69
2023/12/11 05:53:06;;;;;;;14.60;9.00;;;5.70;99.90;;;;;;5035527;28;20042;-68
2023/12/11 05:55:31;;;;;;;13.97;8.63;;;5.80;99.90;;;;;;5035674;28;20473;-70
2023/12/11 05:57:57;;;;;;;13.40;8.23;;;5.80;99.90;;;;;;5035583;28;20105;-70
2023/12/11 06:00:23;;;;;;;13.23;8.60;;;5.80;99.90;;;;;;5035650;28;20063;-68
2023/12/11 06:02:48;;;;;;;13.67;8.00;;;5.80;99.90;;;;;;5034601;28;20116;-71
2023/12/11 06:05:14;;;;;;;13.90;8.57;;;5.80;99.90;;;;;;5035456;28;20034;-71
2023/12/11 06:07:40;;;;;;;15.33;8.73;;;5.80;99.90;;;;;;5035624;28;20045;-71
2023/12/11 06:10:06;;;;;;;12.13;8.50;;;5.80;99.90;;;;;;5035718;28;20041;-63
2023/12/11 06:12:32;;;;;;;13.83;8.40;;;5.90;99.90;;;;;;5035262;28;20029;-63
2023/12/11 06:14:58;;;;;;;17.30;9.87;;;5.90;99.90;;;;;;5035387;28;20046;-63
2023/12/11 06:17:24;;;;;;;13.17;9.10;;;5.90;99.90;;;;;;5035475;28;20033;-72
2023/12/11 06:19:50;;;;;;;16.67;9.60;;;5.90;99.90;;;;;;5035621;28;20072;-63
2023/12/11 06:22:16;;;;;;;16.30;9.23;;;5.90;99.90;;;;;;5035082;28;20033;-64
2023/12/11 06:24:42;;;;;;;15.30;8.60;;;6.00;99.90;;;;;;5035019;28;20508;-63
2023/12/11 06:27:08;;;;;;;13.10;8.43;;;6.00;99.90;;;;;;5034897;28;20087;-63
2023/12/11 06:29:35;;;;;;;15.27;8.67;;;6.00;99.90;;;;;;5034837;28;20042;-63
2023/12/11 06:32:01;;;;;;;11.40;7.40;;;6.10;99.90;;;;;;5034470;28;20044;-64
2023/12/11 06:34:27;;;;;;;12.37;8.10;;;6.00;99.90;;;;;;5034070;28;20038;-62
2023/12/11 06:36:52;;;;;;;11.17;7.83;;;6.00;99.90;;;;;;5035059;28;20481;-63
2023/12/11 06:39:19;;;;;;;11.27;7.93;;;6.10;99.90;;;;;;5034939;28;20049;-63
2023/12/11 06:41:45;;;;;;;12.17;7.67;;;6.10;99.90;;;;;;5050049;28;20045;-63
2023/12/11 06:44:11;;;;;;;12.17;8.17;;;6.00;99.90;;;;;;5054682;28;20029;-63
2023/12/11 06:46:37;;;;;;;11.27;7.97;;;6.00;99.90;;;;;;5054651;28;20083;-63
2023/12/11 06:49:03;;;;;;;12.33;8.20;;;6.00;99.90;;;;;;5054799;28;20540;-63
2023/12/11 06:51:31;;;;;;;13.53;8.30;;;5.90;99.90;;;;;;5054489;28;20036;-63
2023/12/11 06:53:58;;;;;;;10.23;7.40;;;6.00;99.90;;;;;;5054787;28;20103;-63
2023/12/11 06:56:25;;;;;;;21.23;8.57;;;6.00;99.90;;;;;;5054229;28;20041;-60
2023/12/11 06:58:51;;;;;;;16.53;7.77;;;6.00;99.90;;;;;;5054357;28;20099;-60
2023/12/11 07:01:17;;;;;;;14.07;8.33;;;6.00;99.90;;;;;;5054155;28;20484;-60
2023/12/11 07:03:45;;;;;;;15.90;8.87;;;6.00;99.90;;;;;;5053812;28;20052;-61
2023/12/11 07:06:11;;;;;;;15.60;8.10;;;6.00;99.90;;;;;;5053703;28;20500;-60
2023/12/11 07:08:37;;;;;;;15.13;8.37;;;6.00;99.90;;;;;;5053219;28;20037;-60
2023/12/11 07:11:03;;;;;;;11.73;8.23;;;6.00;99.90;;;;;;5054089;28;20424;-62
2023/12/11 07:13:28;;;;;;;16.13;8.80;;;6.10;99.90;;;;;;5053814;28;20489;-60
2023/12/11 07:15:54;;;;;;;12.10;8.10;;;6.10;99.90;;;;;;5053233;28;20048;-60
2023/12/11 07:18:21;;;;;;;12.87;9.13;;;6.10;99.90;;;;;;5053394;28;20036;-60
2023/12/11 07:20:47;;;;;;;15.40;9.70;;;6.10;99.90;;;;;;5053789;28;20319;-60
2023/12/11 07:23:13;;;;;;;18.07;10.17;;;6.10;99.90;;;;;;5053547;28;20037;-61
2023/12/11 07:25:39;;;;;;;13.27;9.37;;;6.10;99.90;;;;;;5053939;28;20055;-60
2023/12/11 07:28:05;;;;;;;22.23;10.73;;;6.10;99.90;;;;;;5053837;28;20036;-60
2023/12/11 07:30:32;;;;;;;19.33;11.30;;;6.20;99.90;;;;;;5053532;28;20033;-61
2023/12/11 07:32:57;;;;;;;19.77;11.10;;;6.20;99.90;;;;;;5053288;28;20503;-60
2023/12/11 07:35:24;;;;;;;22.23;12.20;;;6.20;99.90;;;;;;5053520;28;20076;-60
2023/12/11 07:37:51;;;;;;;23.07;11.93;;;6.20;99.90;;;;;;5053530;28;20025;-60
2023/12/11 07:40:17;;;;;;;16.93;11.37;;;6.20;99.90;;;;;;5053340;28;20465;-60
2023/12/11 07:42:43;;;;;;;17.50;11.93;;;6.20;99.90;;;;;;5053446;28;20033;-60
2023/12/11 07:45:09;;;;;;;20.00;11.67;;;6.30;99.90;;;;;;5053102;28;20037;-61
2023/12/11 07:47:35;;;;;;;17.40;11.57;;;6.30;99.90;;;;;;5053096;28;20037;-61
2023/12/11 07:50:02;;;;;;;23.03;12.10;;;6.30;99.90;;;;;;5053340;28;20040;-61
2023/12/11 07:52:30;;;;;;;18.23;12.80;;;6.30;99.90;;;;;;5053432;28;20501;-60
2023/12/11 07:54:57;;;;;;;22.47;12.23;;;6.30;99.90;;;;;;5053234;28;20052;-60
2023/12/11 07:57:26;;;;;;;20.93;11.83;;;6.30;99.90;;;;;;5053218;28;20033;-60
2023/12/11 07:59:52;;;;;;;19.77;11.87;;;6.30;99.90;;;;;;5053274;28;20397;-60
2023/12/11 08:02:18;;;;;;;17.70;12.40;;;6.40;99.90;;;;;;5035273;28;20538;-60
2023/12/11 08:04:44;;;;;;;21.20;12.30;;;6.40;99.90;;;;;;5052908;28;20033;-60
2023/12/11 08:07:11;;;;;;;19.13;11.20;;;6.40;99.90;;;;;;5052942;28;20036;-60
2023/12/11 08:09:39;;;;;;;18.50;11.67;;;6.50;99.90;;;;;;5053086;28;20060;-60
2023/12/11 08:12:05;;;;;;;16.40;11.47;;;6.50;99.90;;;;;;5052780;28;20025;-60
2023/12/11 08:14:31;;;;;;;19.77;12.07;;;6.50;99.90;;;;;;5052627;28;20580;-60
2023/12/11 08:16:56;;;;;;;19.47;11.40;;;6.50;99.90;;;;;;5052229;28;20056;-60
2023/12/11 08:19:22;;;;;;;28.00;12.53;;;6.50;99.90;;;;;;5052726;28;20061;-62
2023/12/11 08:21:48;;;;;;;24.87;12.40;;;6.50;99.90;;;;;;5052890;28;20068;-60
2023/12/11 08:24:13;;;;;;;28.10;14.37;;;6.50;99.90;;;;;;5052971;28;20029;-61
2023/12/11 08:26:39;;;;;;;24.70;13.00;;;6.50;99.90;;;;;;5052290;28;20037;-61
2023/12/11 08:29:05;;;;;;;22.10;14.20;;;6.50;99.90;;;;;;5052845;28;20044;-60
2023/12/11 08:31:30;;;;;;;25.60;13.30;;;6.50;99.90;;;;;;5052845;28;20032;-60
2023/12/11 08:33:56;;;;;;;20.07;12.33;;;6.50;99.90;;;;;;5052712;28;20539;-72
2023/12/11 08:36:22;;;;;;;22.37;14.13;;;6.50;99.90;;;;;;5052529;28;20505;-72
2023/12/11 08:38:48;;;;;;;22.23;13.47;;;6.50;99.90;;;;;;5052920;28;20033;-71
2023/12/11 08:41:14;;;;;;;22.13;15.07;;;6.60;99.90;;;;;;5052461;28;20064;-70
2023/12/11 08:43:40;;;;;;;20.33;14.10;;;6.60;99.90;;;;;;5052523;28;20029;-71
2023/12/11 08:46:06;;;;;;;23.00;14.80;;;6.60;99.90;;;;;;5052846;28;20048;-71
2023/12/11 08:48:32;;;;;;;27.10;15.03;;;6.60;99.90;;;;;;5052736;28;20057;-73
2023/12/11 08:50:57;;;;;;;25.57;15.87;;;6.60;99.90;;;;;;5052871;28;20036;-72
2023/12/11 08:53:23;;;;;;;23.20;14.90;;;6.70;99.90;;;;;;5052521;28;20040;-72
2023/12/11 08:55:50;;;;;;;22.93;14.00;;;6.70;99.90;;;;;;5052332;28;20056;-70
2023/12/11 08:58:16;;;;;;;22.40;15.23;;;6.70;99.90;;;;;;5052082;28;20362;-71
2023/12/11 09:00:43;;;;;;;21.60;15.03;;;6.80;99.90;;;;;;5052313;28;20047;-71
2023/12/11 09:03:09;;;;;;;23.53;14.00;;;6.80;99.90;;;;;;5052312;28;20037;-73
2023/12/11 09:05:35;;;;;;;22.83;16.40;;;6.80;99.90;;;;;;5052279;28;20029;-64
2023/12/11 09:08:01;;;;;;;22.57;16.27;;;6.90;99.90;;;;;;5052398;28;20107;-62
2023/12/11 09:10:26;;;;;;;19.87;15.50;;;6.90;99.90;;;;;;5052058;28;20436;-62
2023/12/11 09:12:53;;;;;;;22.43;16.50;;;7.00;99.90;;;;;;5052154;28;20388;-62
2023/12/11 09:15:19;;;;;;;22.37;16.93;;;7.10;99.90;;;;;;5051626;28;20560;-62
2023/12/11 09:17:46;;;;;;;21.63;15.23;;;7.20;99.90;;;;;;5052012;28;20112;-62
2023/12/11 09:20:12;;;;;;;24.30;15.83;;;7.20;99.90;;;;;;5052127;28;20048;-62
2023/12/11 09:22:41;;;;;;;20.50;16.03;;;7.20;99.90;;;;;;5052634;28;20384;-62
2023/12/11 09:25:08;;;;;;;25.47;16.03;;;7.30;99.90;;;;;;5052179;28;20098;-62
2023/12/11 09:27:33;;;;;;;25.63;16.50;;;7.30;99.90;;;;;;5052248;28;20067;-64
2023/12/11 09:29:59;;;;;;;21.23;15.83;;;7.30;99.90;;;;;;5052085;28;20033;-62
2023/12/11 09:32:25;;;;;;;22.73;17.10;;;7.30;99.90;;;;;;5052049;28;20406;-62
2023/12/11 09:34:53;;;;;;;20.57;16.07;;;7.40;99.90;;;;;;5052364;28;20397;-62
2023/12/11 09:37:19;;;;;;;24.50;16.60;;;7.40;99.90;;;;;;5052982;28;20056;-63
2023/12/11 09:39:47;;;;;;;24.03;17.17;;;7.40;99.90;;;;;;5056058;28;20040;-61
2023/12/11 09:42:14;;;;;;;26.63;16.83;;;7.40;99.90;;;;;;5055498;28;20053;-62
2023/12/11 09:44:41;;;;;;;20.27;15.80;;;7.40;99.90;;;;;;5055987;28;20477;-62
2023/12/11 09:47:18;;;;;;;24.27;16.23;;;7.50;99.90;;;;;;5055745;28;20107;-62
2023/12/11 09:49:46;;;;;;;23.30;15.70;;;7.50;99.90;;;;;;5055976;28;20484;-62
2023/12/11 09:52:13;;;;;;;25.37;15.57;;;7.50;99.90;;;;;;5055548;28;20037;-62
2023/12/11 09:54:39;;;;;;;20.80;15.03;;;7.50;99.90;;;;;;5055488;28;20041;-62
2023/12/11 09:57:09;;;;;;;21.80;14.80;;;7.50;99.90;;;;;;5055585;28;20029;-67
2023/12/11 09:59:35;;;;;;;22.60;16.03;;;7.60;99.90;;;;;;5055656;28;20485;-62
2023/12/11 10:02:03;;;;;;;22.00;16.37;;;7.60;99.90;;;;;;5055428;28;20104;-62
2023/12/11 10:04:29;;;;;;;26.33;17.00;;;7.60;99.90;;;;;;5055600;28;20485;-62
2023/12/11 10:06:55;;;;;;;23.67;16.60;;;7.60;99.90;;;;;;5055543;28;20043;-63
2023/12/11 10:09:33;;;;;;;25.00;17.60;;;7.70;99.90;;;;;;5055322;28;20032;-62
2023/12/11 10:12:03;;;;;;;28.30;17.73;;;7.70;99.90;;;;;;5055170;28;20033;-62
2023/12/11 10:14:30;;;;;;;24.10;17.57;;;7.70;99.90;;;;;;5054985;28;20026;-62
2023/12/11 10:17:15;;;;;;;22.83;17.03;;;7.80;99.90;;;;;;5055173;28;20072;-62
2023/12/11 10:19:41;;;;;;;24.03;17.80;;;7.80;99.90;;;;;;5055044;28;20425;-62
2023/12/11 10:22:06;;;;;;;24.10;17.13;;;7.80;99.90;;;;;;5054985;28;20068;-62
2023/12/11 10:24:32;;;;;;;21.37;15.80;;;7.90;99.90;;;;;;5055326;28;20041;-61
2023/12/11 10:26:58;;;;;;;23.33;17.07;;;7.90;99.90;;;;;;5055395;28;20420;-62
2023/12/11 10:29:30;;;;;;;21.93;15.57;;;7.90;99.90;;;;;;5054811;28;20033;-62
2023/12/11 10:32:03;;;;;;;23.80;17.67;;;7.90;99.90;;;;;;5055014;28;20057;-63
2023/12/11 10:34:50;;;;;;;26.17;16.13;;;7.90;99.90;;;;;;5054342;28;20049;-62
2023/12/11 10:37:19;;;;;;;22.07;16.57;;;7.90;99.90;;;;;;5054551;28;20029;-62
2023/12/11 10:39:55;;;;;;;24.40;16.43;;;8.00;99.90;;;;;;5054736;28;20044;-62
2023/12/11 10:42:21;;;;;;;27.83;15.40;;;8.00;99.90;;;;;;5014976;28;20054;-63
2023/12/11 10:44:48;;;;;;;29.33;16.07;;;8.10;99.90;;;;;;5014464;28;20474;-63
2023/12/11 10:47:15;;;;;;;24.13;15.07;;;8.10;99.90;;;;;;5014518;28;20109;-68
2023/12/11 10:49:41;;;;;;;20.67;14.90;;;8.10;99.90;;;;;;5014078;28;20038;-63
2023/12/11 10:52:07;;;;;;;23.27;14.43;;;8.20;99.90;;;;;;5014439;28;20030;-63
2023/12/11 10:54:37;;;;;;;23.90;13.23;;;8.20;99.90;;;;;;5014493;28;20109;-62
2023/12/11 10:57:05;;;;;;;18.30;12.33;;;8.30;99.90;;;;;;5014244;28;20045;-63
2023/12/11 10:59:34;;;;;;;16.77;12.40;;;8.30;99.90;;;;;;5014353;28;20486;-63
2023/12/11 11:02:00;;;;;;;16.97;11.43;;;8.30;99.90;;;;;;5014252;28;20038;-63
2023/12/11 11:04:30;;;;;;;22.73;15.20;;;8.40;99.90;;;;;;5014533;28;20066;-63
2023/12/11 11:07:26;;;;;;;22.53;15.10;;;8.40;99.90;;;;;;5014356;28;20041;-71
2023/12/11 11:10:04;;;;;;;27.43;18.30;;;8.40;99.90;;;;;;5014601;28;20041;-72
2023/12/11 11:13:07;;;;;;;30.67;20.30;;;8.40;99.90;;;;;;5014182;28;20032;-72
2023/12/11 11:15:33;;;;;;;23.58;16.15;;;8.40;99.90;;;;;;5014148;28;20048;-71
2023/12/11 11:18:03;;;;;;;18.57;13.63;;;8.40;99.90;;;;;;5014211;28;20034;-71
2023/12/11 11:20:31;;;;;;;22.43;15.23;;;8.40;99.90;;;;;;5013974;28;20026;-72
2023/12/11 11:23:16;;;;;;;21.63;14.20;;;8.40;99.90;;;;;;5014029;28;20513;-72
2023/12/11 11:25:45;;;;;;;34.33;22.70;;;8.40;99.90;;;;;;5013910;28;20034;-72
2023/12/11 11:28:37;;;;;;;25.63;17.43;;;8.40;99.90;;;;;;5014069;28;20042;-70
2023/12/11 11:31:04;;;;;;;21.25;14.82;;;8.40;99.90;;;;;;5014111;28;20038;-72
2023/12/11 11:33:52;;;;;;;18.17;12.23;;;8.40;99.90;;;;;;5013902;28;20026;-71
2023/12/11 11:36:20;;;;;;;19.00;11.70;;;8.40;99.90;;;;;;5013581;28;20061;-72
2023/12/11 11:38:57;;;;;;;16.67;10.30;;;8.30;99.90;;;;;;5013416;28;20108;-70
2023/12/11 11:41:24;;;;;;;17.43;10.60;;;8.30;99.90;;;;;;5037651;28;20515;-72
2023/12/11 11:43:56;;;;;;;19.83;11.40;;;8.30;99.90;;;;;;5053528;28;20037;-71
2023/12/11 11:46:24;;;;;;;21.13;10.60;;;8.40;99.90;;;;;;5053041;28;20049;-70
2023/12/11 11:48:49;;;;;;;24.87;11.33;;;8.40;99.90;;;;;;5053146;28;20056;-70
2023/12/11 11:51:17;;;;;;;19.07;11.70;;;8.30;99.90;;;;;;5053086;28;20488;-69
2023/12/11 11:53:44;;;;;;;20.83;11.23;;;8.40;99.90;;;;;;5053111;28;20033;-69
2023/12/11 11:56:11;;;;;;;18.57;10.43;;;8.40;99.90;;;;;;5053138;28;20405;-61
2023/12/11 11:58:37;;;;;;;21.27;10.70;;;8.40;99.90;;;;;;5052819;28;20039;-69
2023/12/11 12:01:05;;;;;;;19.90;9.60;;;8.40;99.90;;;;;;5052379;28;20033;-69
2023/12/11 12:03:44;;;;;;;16.53;9.70;;;8.40;99.90;;;;;;5034246;28;20036;-68
2023/12/11 12:06:10;;;;;;;16.30;9.40;;;8.40;99.90;;;;;;5053183;28;20029;-70
2023/12/11 12:08:41;;;;;;;16.73;10.23;;;8.40;99.90;;;;;;5053289;28;20033;-69
2023/12/11 12:11:07;;;;;;;21.43;10.13;;;8.40;99.90;;;;;;5052734;28;20044;-69
2023/12/11 12:13:33;;;;;;;16.67;10.00;;;8.40;99.90;;;;;;5053123;28;20037;-70
2023/12/11 12:15:59;;;;;;;16.50;9.13;;;8.40;99.90;;;;;;5052181;28;20053;-68
2023/12/11 12:18:25;;;;;;;16.53;8.83;;;8.50;99.90;;;;;;5052613;28;20044;-70
2023/12/11 12:21:02;;;;;;;19.90;8.63;;;8.50;99.90;;;;;;5052627;28;20026;-63
2023/12/11 12:23:27;;;;;;;14.53;7.97;;;8.50;99.90;;;;;;5052533;28;20044;-60
2023/12/11 12:25:57;;;;;;;15.03;7.73;;;8.50;99.90;;;;;;5052925;28;20029;-60
2023/12/11 12:28:23;;;;;;;14.03;8.47;;;8.40;99.90;;;;;;5053136;28;20029;-61
2023/12/11 12:30:49;;;;;;;16.50;8.17;;;8.50;99.90;;;;;;5052622;28;20178;-60
2023/12/11 12:33:18;;;;;;;13.57;8.30;;;8.50;99.90;;;;;;5052079;28;20115;-61
2023/12/11 12:35:45;;;;;;;16.93;8.43;;;8.50;99.90;;;;;;5052087;28;20388;-60
2023/12/11 12:38:11;;;;;;;14.03;8.23;;;8.50;99.90;;;;;;5052762;28;20393;-61
2023/12/11 12:40:37;;;;;;;20.77;8.77;;;8.50;99.90;;;;;;5052425;28;20047;-60